sensor_id;sensor_type;location;lat;lon;timestamp;temperature;humidity
19174;DHT22;9719;49.322;8.536;2024-02-26T00:01:20;8.70;99.90
19174;DHT22;9719;49.322;8.536;2024-02-26T00:06:21;8.70;99.90
19174;DHT22;9719;49.322;8.536;2024-02-26T00:11:24;8.70;99.90
19174;DHT22;9719;49.322;8.536;2024-02-26T00:16:26;8.70;99.90
19174;DHT22;9719;49.322;8.536;2024-02-26T00:21:28;8.60;99.90
19174;DHT22;9719;49.322;8.536;2024-02-26T00:26:31;8.60;99.90
19174;DHT22;9719;49.322;8.536;2024-02-26T00:31:32;8.50;99.90
19174;DHT22;9719;49.322;8.536;2024-02-26T00:36:34;8.40;99.90
19174;DHT22;9719;49.322;8.536;2024-02-26T00:41:39;8.30;99.90
19174;DHT22;9719;49.322;8.536;2024-02-26T00:46:41;8.30;99.90
19174;DHT22;9719;49.322;8.536;2024-02-26T00:51:43;8.10;99.90
19174;DHT22;9719;49.322;8.536;2024-02-26T00:56:46;8.10;99.90
19174;DHT22;9719;49.322;8.536;2024-02-26T01:01:47;8.00;99.90
19174;DHT22;9719;49.322;8.536;2024-02-26T01:06:49;8.00;99.90
19174;DHT22;9719;49.322;8.536;2024-02-26T01:11:52;8.10;99.90
19174;DHT22;9719;49.322;8.536;2024-02-26T01:16:54;8.10;99.90
19174;DHT22;9719;49.322;8.536;2024-02-26T01:21:55;8.10;99.90
19174;DHT22;9719;49.322;8.536;2024-02-26T01:26:58;8.10;99.90
19174;DHT22;9719;49.322;8.536;2024-02-26T01:32:00;8.00;99.90
19174;DHT22;9719;49.322;8.536;2024-02-26T01:37:02;8.00;99.90
19174;DHT22;9719;49.322;8.536;2024-02-26T01:42:05;7.90;99.90
19174;DHT22;9719;49.322;8.536;2024-02-26T01:47:09;7.90;99.90
19174;DHT22;9719;49.322;8.536;2024-02-26T01:52:11;7.80;99.90
19174;DHT22;9719;49.322;8.536;2024-02-26T01:57:15;7.70;99.90
19174;DHT22;9719;49.322;8.536;2024-02-26T02:02:17;7.50;99.90
19174;DHT22;9719;49.322;8.536;2024-02-26T02:07:20;7.70;99.90
19174;DHT22;9719;49.322;8.536;2024-02-26T02:12:24;7.50;99.90
19174;DHT22;9719;49.322;8.536;2024-02-26T02:17:27;7.30;99.90
19174;DHT22;9719;49.322;8.536;2024-02-26T02:22:30;7.40;99.90
19174;DHT22;9719;49.322;8.536;2024-02-26T02:27:33;7.60;99.90
19174;DHT22;9719;49.322;8.536;2024-02-26T02:32:37;7.60;99.90
19174;DHT22;9719;49.322;8.536;2024-02-26T02:37:40;7.50;99.90
19174;DHT22;9719;49.322;8.536;2024-02-26T02:42:42;7.50;99.90
19174;DHT22;9719;49.322;8.536;2024-02-26T02:47:43;7.60;99.90
19174;DHT22;9719;49.322;8.536;2024-02-26T02:52:46;7.60;99.90
19174;DHT22;9719;49.322;8.536;2024-02-26T02:57:48;7.70;99.90
19174;DHT22;9719;49.322;8.536;2024-02-26T03:02:50;7.70;99.90
19174;DHT22;9719;49.322;8.536;2024-02-26T03:07:53;7.70;99.90
19174;DHT22;9719;49.322;8.536;2024-02-26T03:12:55;7.60;99.90
19174;DHT22;9719;49.322;8.536;2024-02-26T03:17:57;7.60;99.90
19174;DHT22;9719;49.322;8.536;2024-02-26T03:23:00;7.60;99.90
19174;DHT22;9719;49.322;8.536;2024-02-26T03:28:02;7.70;99.90
19174;DHT22;9719;49.322;8.536;2024-02-26T03:33:04;7.50;99.90
19174;DHT22;9719;49.322;8.536;2024-02-26T03:38:07;7.30;99.90
19174;DHT22;9719;49.322;8.536;2024-02-26T03:43:08;7.20;99.90
19174;DHT22;9719;49.322;8.536;2024-02-26T03:48:10;7.10;99.90
19174;DHT22;9719;49.322;8.536;2024-02-26T03:53:13;7.00;99.90
19174;DHT22;9719;49.322;8.536;2024-02-26T03:58:15;7.00;99.90
19174;DHT22;9719;49.322;8.536;2024-02-26T04:03:16;7.00;99.90
19174;DHT22;9719;49.322;8.536;2024-02-26T04:08:19;7.00;99.90
19174;DHT22;9719;49.322;8.536;2024-02-26T04:13:21;7.00;99.90
19174;DHT22;9719;49.322;8.536;2024-02-26T04:18:23;7.10;99.90
19174;DHT22;9719;49.322;8.536;2024-02-26T04:23:26;7.10;99.90
19174;DHT22;9719;49.322;8.536;2024-02-26T04:28:28;7.10;99.90
19174;DHT22;9719;49.322;8.536;2024-02-26T04:33:30;7.00;99.90
19174;DHT22;9719;49.322;8.536;2024-02-26T04:38:33;7.10;99.90
19174;DHT22;9719;49.322;8.536;2024-02-26T04:43:35;7.00;99.90
19174;DHT22;9719;49.322;8.536;2024-02-26T04:48:41;7.10;99.90
19174;DHT22;9719;49.322;8.536;2024-02-26T04:53:46;7.00;99.90
19174;DHT22;9719;49.322;8.536;2024-02-26T04:58:48;7.20;99.90
19174;DHT22;9719;49.322;8.536;2024-02-26T05:03:49;7.20;99.90
19174;DHT22;9719;49.322;8.536;2024-02-26T05:08:52;7.00;99.90
19174;DHT22;9719;49.322;8.536;2024-02-26T05:13:54;7.10;99.90
19174;DHT22;9719;49.322;8.536;2024-02-26T05:18:56;7.00;99.90
19174;DHT22;9719;49.322;8.536;2024-02-26T05:23:59;6.90;99.90
19174;DHT22;9719;49.322;8.536;2024-02-26T05:29:00;7.00;99.90
19174;DHT22;9719;49.322;8.536;2024-02-26T05:34:02;7.00;99.90
19174;DHT22;9719;49.322;8.536;2024-02-26T05:39:05;6.90;99.90
19174;DHT22;9719;49.322;8.536;2024-02-26T05:44:07;7.00;99.90
19174;DHT22;9719;49.322;8.536;2024-02-26T05:49:10;7.00;99.90
19174;DHT22;9719;49.322;8.536;2024-02-26T05:54:13;7.00;99.90
19174;DHT22;9719;49.322;8.536;2024-02-26T05:59:15;6.90;99.90
19174;DHT22;9719;49.322;8.536;2024-02-26T06:04:17;6.90;99.90
19174;DHT22;9719;49.322;8.536;2024-02-26T06:09:20;6.80;99.90
19174;DHT22;9719;49.322;8.536;2024-02-26T06:14:21;6.60;99.90
19174;DHT22;9719;49.322;8.536;2024-02-26T06:19:23;6.50;99.90
19174;DHT22;9719;49.322;8.536;2024-02-26T06:24:26;6.40;99.90
19174;DHT22;9719;49.322;8.536;2024-02-26T06:29:28;6.30;99.90
19174;DHT22;9719;49.322;8.536;2024-02-26T06:34:30;6.40;99.90
19174;DHT22;9719;49.322;8.536;2024-02-26T06:39:33;6.40;99.90
19174;DHT22;9719;49.322;8.536;2024-02-26T06:44:35;6.50;99.90
19174;DHT22;9719;49.322;8.536;2024-02-26T06:49:36;6.60;99.90
19174;DHT22;9719;49.322;8.536;2024-02-26T06:54:39;6.50;99.90
19174;DHT22;9719;49.322;8.536;2024-02-26T06:59:42;6.50;99.90
19174;DHT22;9719;49.322;8.536;2024-02-26T07:04:46;6.70;99.90
19174;DHT22;9719;49.322;8.536;2024-02-26T07:09:49;6.90;99.90
19174;DHT22;9719;49.322;8.536;2024-02-26T07:14:51;6.90;99.90
19174;DHT22;9719;49.322;8.536;2024-02-26T07:19:53;6.90;99.90
19174;DHT22;9719;49.322;8.536;2024-02-26T07:24:56;7.10;99.90
19174;DHT22;9719;49.322;8.536;2024-02-26T07:29:57;7.20;99.90
19174;DHT22;9719;49.322;8.536;2024-02-26T07:34:59;7.20;99.90
19174;DHT22;9719;49.322;8.536;2024-02-26T07:40:03;7.30;99.90
19174;DHT22;9719;49.322;8.536;2024-02-26T07:45:05;7.20;99.90
19174;DHT22;9719;49.322;8.536;2024-02-26T07:50:07;7.60;99.90
19174;DHT22;9719;49.322;8.536;2024-02-26T07:55:11;7.50;99.90
19174;DHT22;9719;49.322;8.536;2024-02-26T08:00:13;7.50;99.90
19174;DHT22;9719;49.322;8.536;2024-02-26T08:05:17;7.40;99.90
19174;DHT22;9719;49.322;8.536;2024-02-26T08:10:20;7.50;99.90
19174;DHT22;9719;49.322;8.536;2024-02-26T08:15:22;7.60;99.90
19174;DHT22;9719;49.322;8.536;2024-02-26T08:20:23;7.60;99.90
19174;DHT22;9719;49.322;8.536;2024-02-26T08:25:26;7.80;99.90
19174;DHT22;9719;49.322;8.536;2024-02-26T08:30:28;8.00;99.90
19174;DHT22;9719;49.322;8.536;2024-02-26T08:35:30;8.20;99.90
19174;DHT22;9719;49.322;8.536;2024-02-26T08:40:33;8.10;99.90
19174;DHT22;9719;49.322;8.536;2024-02-26T08:45:34;8.20;99.90
19174;DHT22;9719;49.322;8.536;2024-02-26T08:50:36;8.30;99.90
19174;DHT22;9719;49.322;8.536;2024-02-26T08:55:39;8.50;99.90
19174;DHT22;9719;49.322;8.536;2024-02-26T09:00:40;8.80;99.90
19174;DHT22;9719;49.322;8.536;2024-02-26T09:05:42;8.70;99.90
19174;DHT22;9719;49.322;8.536;2024-02-26T09:10:46;9.00;99.90
19174;DHT22;9719;49.322;8.536;2024-02-26T09:15:47;9.00;99.90
19174;DHT22;9719;49.322;8.536;2024-02-26T09:20:49;8.90;99.90
19174;DHT22;9719;49.322;8.536;2024-02-26T09:25:52;9.00;99.90
19174;DHT22;9719;49.322;8.536;2024-02-26T09:30:54;9.20;99.90
19174;DHT22;9719;49.322;8.536;2024-02-26T09:35:56;9.40;99.90
19174;DHT22;9719;49.322;8.536;2024-02-26T09:40:59;9.60;99.90
19174;DHT22;9719;49.322;8.536;2024-02-26T09:46:01;9.50;99.90
19174;DHT22;9719;49.322;8.536;2024-02-26T09:51:03;9.60;99.90
19174;DHT22;9719;49.322;8.536;2024-02-26T09:56:07;9.60;99.90
19174;DHT22;9719;49.322;8.536;2024-02-26T10:01:13;10.10;99.90
19174;DHT22;9719;49.322;8.536;2024-02-26T10:06:16;10.40;99.90
19174;DHT22;9719;49.322;8.536;2024-02-26T10:11:20;10.30;99.90
19174;DHT22;9719;49.322;8.536;2024-02-26T10:16:24;10.40;99.90
19174;DHT22;9719;49.322;8.536;2024-02-26T10:21:26;10.10;99.90
19174;DHT22;9719;49.322;8.536;2024-02-26T10:26:29;10.40;99.90
19174;DHT22;9719;49.322;8.536;2024-02-26T10:31:32;10.60;99.90
19174;DHT22;9719;49.322;8.536;2024-02-26T10:36:34;10.70;99.90
19174;DHT22;9719;49.322;8.536;2024-02-26T10:41:37;10.70;99.90
19174;DHT22;9719;49.322;8.536;2024-02-26T10:46:40;10.80;99.90
19174;DHT22;9719;49.322;8.536;2024-02-26T10:51:44;10.80;99.90
19174;DHT22;9719;49.322;8.536;2024-02-26T10:56:49;11.00;99.90
19174;DHT22;9719;49.322;8.536;2024-02-26T11:01:52;11.00;99.90
19174;DHT22;9719;49.322;8.536;2024-02-26T11:06:54;11.20;99.90
19174;DHT22;9719;49.322;8.536;2024-02-26T11:11:58;11.50;99.90
19174;DHT22;9719;49.322;8.536;2024-02-26T11:17:00;11.70;99.90
19174;DHT22;9719;49.322;8.536;2024-02-26T11:22:03;11.90;99.90
19174;DHT22;9719;49.322;8.536;2024-02-26T11:27:06;11.60;99.90
19174;DHT22;9719;49.322;8.536;2024-02-26T11:32:10;11.60;99.90
19174;DHT22;9719;49.322;8.536;2024-02-26T11:37:13;11.70;99.90
19174;DHT22;9719;49.322;8.536;2024-02-26T11:42:16;11.80;99.90
19174;DHT22;9719;49.322;8.536;2024-02-26T11:47:20;12.30;99.90
19174;DHT22;9719;49.322;8.536;2024-02-26T11:52:22;12.70;99.90
19174;DHT22;9719;49.322;8.536;2024-02-26T11:57:26;12.90;99.90
19174;DHT22;9719;49.322;8.536;2024-02-26T12:02:43;12.70;99.90
19174;DHT22;9719;49.322;8.536;2024-02-26T12:07:46;13.00;99.90
19174;DHT22;9719;49.322;8.536;2024-02-26T12:12:49;13.40;99.90
19174;DHT22;9719;49.322;8.536;2024-02-26T12:17:54;13.60;99.90
19174;DHT22;9719;49.322;8.536;2024-02-26T12:22:56;13.40;99.90
19174;DHT22;9719;49.322;8.536;2024-02-26T12:28:00;13.70;99.90
19174;DHT22;9719;49.322;8.536;2024-02-26T12:33:02;14.10;99.90
19174;DHT22;9719;49.322;8.536;2024-02-26T12:38:04;14.30;99.90
19174;DHT22;9719;49.322;8.536;2024-02-26T12:43:07;13.60;99.90
19174;DHT22;9719;49.322;8.536;2024-02-26T12:48:13;13.60;99.90
19174;DHT22;9719;49.322;8.536;2024-02-26T12:53:15;14.00;99.90
19174;DHT22;9719;49.322;8.536;2024-02-26T12:58:19;14.10;99.90
19174;DHT22;9719;49.322;8.536;2024-02-26T13:03:25;14.20;99.90
19174;DHT22;9719;49.322;8.536;2024-02-26T13:08:27;14.20;99.90
19174;DHT22;9719;49.322;8.536;2024-02-26T13:13:30;14.40;99.90
19174;DHT22;9719;49.322;8.536;2024-02-26T13:18:32;14.40;99.90
19174;DHT22;9719;49.322;8.536;2024-02-26T13:23:34;13.90;99.90
19174;DHT22;9719;49.322;8.536;2024-02-26T13:28:37;13.80;99.90
19174;DHT22;9719;49.322;8.536;2024-02-26T13:33:39;13.80;99.90
19174;DHT22;9719;49.322;8.536;2024-02-26T13:38:51;13.90;99.90
19174;DHT22;9719;49.322;8.536;2024-02-26T13:43:54;14.70;99.90
19174;DHT22;9719;49.322;8.536;2024-02-26T13:48:58;14.30;99.90
19174;DHT22;9719;49.322;8.536;2024-02-26T13:53:59;13.90;99.90
19174;DHT22;9719;49.322;8.536;2024-02-26T13:59:02;13.60;99.90
19174;DHT22;9719;49.322;8.536;2024-02-26T14:04:04;14.10;99.90
19174;DHT22;9719;49.322;8.536;2024-02-26T14:09:07;14.30;99.90
19174;DHT22;9719;49.322;8.536;2024-02-26T14:14:11;14.30;99.90
19174;DHT22;9719;49.322;8.536;2024-02-26T14:19:12;14.20;99.90
19174;DHT22;9719;49.322;8.536;2024-02-26T14:24:14;14.10;99.90
19174;DHT22;9719;49.322;8.536;2024-02-26T14:29:17;14.60;99.90
19174;DHT22;9719;49.322;8.536;2024-02-26T14:34:19;13.90;99.90
19174;DHT22;9719;49.322;8.536;2024-02-26T14:39:20;14.30;99.90
19174;DHT22;9719;49.322;8.536;2024-02-26T14:44:23;14.40;99.90
19174;DHT22;9719;49.322;8.536;2024-02-26T14:49:25;14.00;99.90
19174;DHT22;9719;49.322;8.536;2024-02-26T14:54:28;14.10;99.90
19174;DHT22;9719;49.322;8.536;2024-02-26T14:59:34;14.10;99.90
19174;DHT22;9719;49.322;8.536;2024-02-26T15:04:37;14.20;99.90
19174;DHT22;9719;49.322;8.536;2024-02-26T15:09:38;14.00;99.90
19174;DHT22;9719;49.322;8.536;2024-02-26T15:14:42;14.10;99.90
19174;DHT22;9719;49.322;8.536;2024-02-26T15:19:45;14.00;99.90
19174;DHT22;9719;49.322;8.536;2024-02-26T15:24:46;14.10;99.90
19174;DHT22;9719;49.322;8.536;2024-02-26T15:29:49;14.10;99.90
19174;DHT22;9719;49.322;8.536;2024-02-26T15:34:57;14.00;99.90
19174;DHT22;9719;49.322;8.536;2024-02-26T15:39:59;14.20;99.90
19174;DHT22;9719;49.322;8.536;2024-02-26T15:45:02;14.00;99.90
19174;DHT22;9719;49.322;8.536;2024-02-26T15:50:05;13.90;99.90
19174;DHT22;9719;49.322;8.536;2024-02-26T15:55:07;13.80;99.90
19174;DHT22;9719;49.322;8.536;2024-02-26T16:00:12;13.90;99.90
19174;DHT22;9719;49.322;8.536;2024-02-26T16:05:13;13.80;99.90
19174;DHT22;9719;49.322;8.536;2024-02-26T16:10:15;13.60;99.90
19174;DHT22;9719;49.322;8.536;2024-02-26T16:15:18;13.70;99.90
19174;DHT22;9719;49.322;8.536;2024-02-26T16:20:22;13.60;99.90
19174;DHT22;9719;49.322;8.536;2024-02-26T16:25:25;13.50;99.90
19174;DHT22;9719;49.322;8.536;2024-02-26T16:30:28;13.30;99.90
19174;DHT22;9719;49.322;8.536;2024-02-26T16:35:32;13.00;99.90
19174;DHT22;9719;49.322;8.536;2024-02-26T16:40:34;13.00;99.90
19174;DHT22;9719;49.322;8.536;2024-02-26T16:45:38;12.80;99.90
19174;DHT22;9719;49.322;8.536;2024-02-26T16:50:39;12.90;99.90
19174;DHT22;9719;49.322;8.536;2024-02-26T16:55:41;12.70;99.90
19174;DHT22;9719;49.322;8.536;2024-02-26T17:00:45;12.70;99.90
19174;DHT22;9719;49.322;8.536;2024-02-26T17:05:46;12.70;99.90
19174;DHT22;9719;49.322;8.536;2024-02-26T17:10:48;12.40;99.90
19174;DHT22;9719;49.322;8.536;2024-02-26T17:15:51;12.40;99.90
19174;DHT22;9719;49.322;8.536;2024-02-26T17:20:53;12.30;99.90
19174;DHT22;9719;49.322;8.536;2024-02-26T17:25:56;12.30;99.90
19174;DHT22;9719;49.322;8.536;2024-02-26T17:30:58;12.20;99.90
19174;DHT22;9719;49.322;8.536;2024-02-26T17:36:00;12.10;99.90
19174;DHT22;9719;49.322;8.536;2024-02-26T17:41:02;12.10;99.90
19174;DHT22;9719;49.322;8.536;2024-02-26T17:46:07;12.10;99.90
19174;DHT22;9719;49.322;8.536;2024-02-26T17:51:09;12.00;99.90
19174;DHT22;9719;49.322;8.536;2024-02-26T17:56:11;12.00;99.90
19174;DHT22;9719;49.322;8.536;2024-02-26T18:01:15;12.10;99.90
19174;DHT22;9719;49.322;8.536;2024-02-26T18:06:17;11.90;99.90
19174;DHT22;9719;49.322;8.536;2024-02-26T18:11:20;12.00;99.90
19174;DHT22;9719;49.322;8.536;2024-02-26T18:16:23;12.00;99.90
19174;DHT22;9719;49.322;8.536;2024-02-26T18:21:24;12.00;99.90
19174;DHT22;9719;49.322;8.536;2024-02-26T18:26:26;12.00;99.90
19174;DHT22;9719;49.322;8.536;2024-02-26T18:31:29;11.70;99.90
19174;DHT22;9719;49.322;8.536;2024-02-26T18:36:31;11.50;99.90
19174;DHT22;9719;49.322;8.536;2024-02-26T18:41:33;11.50;99.90
19174;DHT22;9719;49.322;8.536;2024-02-26T18:46:43;11.40;99.90
19174;DHT22;9719;49.322;8.536;2024-02-26T18:51:44;11.50;99.90
19174;DHT22;9719;49.322;8.536;2024-02-26T18:56:46;11.30;99.90
19174;DHT22;9719;49.322;8.536;2024-02-26T19:01:49;11.10;99.90
19174;DHT22;9719;49.322;8.536;2024-02-26T19:06:51;11.10;99.90
19174;DHT22;9719;49.322;8.536;2024-02-26T19:11:53;11.20;99.90
19174;DHT22;9719;49.322;8.536;2024-02-26T19:16:57;11.00;99.90
19174;DHT22;9719;49.322;8.536;2024-02-26T19:21:58;11.00;99.90
19174;DHT22;9719;49.322;8.536;2024-02-26T19:27:00;10.90;99.90
19174;DHT22;9719;49.322;8.536;2024-02-26T19:32:03;10.90;99.90
19174;DHT22;9719;49.322;8.536;2024-02-26T19:37:05;10.80;99.90
19174;DHT22;9719;49.322;8.536;2024-02-26T19:42:07;10.60;99.90
19174;DHT22;9719;49.322;8.536;2024-02-26T19:47:12;10.60;99.90
19174;DHT22;9719;49.322;8.536;2024-02-26T19:52:14;10.30;99.90
19174;DHT22;9719;49.322;8.536;2024-02-26T19:57:17;10.30;99.90
19174;DHT22;9719;49.322;8.536;2024-02-26T20:02:20;10.40;99.90
19174;DHT22;9719;49.322;8.536;2024-02-26T20:07:21;10.30;99.90
19174;DHT22;9719;49.322;8.536;2024-02-26T20:12:23;10.30;99.90
19174;DHT22;9719;49.322;8.536;2024-02-26T20:17:26;10.10;99.90
19174;DHT22;9719;49.322;8.536;2024-02-26T20:22:28;9.70;99.90
19174;DHT22;9719;49.322;8.536;2024-02-26T20:27:30;9.50;99.90
19174;DHT22;9719;49.322;8.536;2024-02-26T20:32:33;9.60;99.90
19174;DHT22;9719;49.322;8.536;2024-02-26T20:37:35;9.50;99.90
19174;DHT22;9719;49.322;8.536;2024-02-26T20:42:37;9.50;99.90
19174;DHT22;9719;49.322;8.536;2024-02-26T20:47:40;9.50;99.90
19174;DHT22;9719;49.322;8.536;2024-02-26T20:52:42;9.70;99.90
19174;DHT22;9719;49.322;8.536;2024-02-26T20:57:43;9.60;99.90
19174;DHT22;9719;49.322;8.536;2024-02-26T21:02:46;9.70;99.90
19174;DHT22;9719;49.322;8.536;2024-02-26T21:07:48;9.60;99.90
19174;DHT22;9719;49.322;8.536;2024-02-26T21:12:50;9.70;99.90
19174;DHT22;9719;49.322;8.536;2024-02-26T21:17:53;9.70;99.90
19174;DHT22;9719;49.322;8.536;2024-02-26T21:22:54;9.70;99.90
19174;DHT22;9719;49.322;8.536;2024-02-26T21:27:56;9.80;99.90
19174;DHT22;9719;49.322;8.536;2024-02-26T21:33:01;9.90;99.90
19174;DHT22;9719;49.322;8.536;2024-02-26T21:38:03;9.90;99.90
19174;DHT22;9719;49.322;8.536;2024-02-26T21:43:05;9.80;99.90
19174;DHT22;9719;49.322;8.536;2024-02-26T21:48:08;9.90;99.90
19174;DHT22;9719;49.322;8.536;2024-02-26T21:53:10;9.90;99.90
19174;DHT22;9719;49.322;8.536;2024-02-26T21:58:12;10.00;99.90
19174;DHT22;9719;49.322;8.536;2024-02-26T22:03:14;9.70;99.90
19174;DHT22;9719;49.322;8.536;2024-02-26T22:08:16;9.50;99.90
19174;DHT22;9719;49.322;8.536;2024-02-26T22:13:18;9.10;99.90
19174;DHT22;9719;49.322;8.536;2024-02-26T22:18:21;9.00;99.90
19174;DHT22;9719;49.322;8.536;2024-02-26T22:23:23;8.90;99.90
19174;DHT22;9719;49.322;8.536;2024-02-26T22:28:24;8.80;99.90
19174;DHT22;9719;49.322;8.536;2024-02-26T22:33:27;8.80;99.90
19174;DHT22;9719;49.322;8.536;2024-02-26T22:38:29;8.60;99.90
19174;DHT22;9719;49.322;8.536;2024-02-26T22:43:31;8.70;99.90
19174;DHT22;9719;49.322;8.536;2024-02-26T22:48:34;8.50;99.90
19174;DHT22;9719;49.322;8.536;2024-02-26T22:53:36;8.30;99.90
19174;DHT22;9719;49.322;8.536;2024-02-26T22:58:38;8.40;99.90
19174;DHT22;9719;49.322;8.536;2024-02-26T23:03:41;8.10;99.90
19174;DHT22;9719;49.322;8.536;2024-02-26T23:08:43;8.30;99.90
19174;DHT22;9719;49.322;8.536;2024-02-26T23:13:45;7.90;99.90
19174;DHT22;9719;49.322;8.536;2024-02-26T23:18:48;8.10;99.90
19174;DHT22;9719;49.322;8.536;2024-02-26T23:23:50;8.30;99.90
19174;DHT22;9719;49.322;8.536;2024-02-26T23:28:52;8.20;99.90
19174;DHT22;9719;49.322;8.536;2024-02-26T23:33:55;8.00;99.90
19174;DHT22;9719;49.322;8.536;2024-02-26T23:38:57;7.90;99.90
19174;DHT22;9719;49.322;8.536;2024-02-26T23:44:00;7.90;99.90
19174;DHT22;9719;49.322;8.536;2024-02-26T23:49:03;7.70;99.90
19174;DHT22;9719;49.322;8.536;2024-02-26T23:54:07;7.80;99.90
19174;DHT22;9719;49.322;8.536;2024-02-26T23:59:09;7.80;99.90
